Time;durP1;ratioP1;P1;durP2;ratioP2;P2;SDS_P1;SDS_P2;PMS_P1;PMS_P2;Temp;Humidity;BMP_temperature;BMP_pressure;BME280_temperature;BME280_humidity;BME280_pressure;Samples;Min_cycle;Max_cycle;Signal;HPM_P1;HPM_P2
2022/10/25 00:00:26;;;;;;;4.95;1.52;;;;;;;;;;5000829;28;20034;-75
2022/10/25 00:03:11;;;;;;;6.03;1.30;;;;;;;;;;4987174;28;20437;-70
2022/10/25 00:05:56;;;;;;;2.63;1.30;;;;;;;;;;5001934;28;20125;-78
2022/10/25 00:08:42;;;;;;;2.30;1.40;;;;;;;;;;4977586;28;20026;-82
2022/10/25 00:11:28;;;;;;;4.80;1.55;;;;;;;;;;4978714;28;20578;-83
2022/10/25 00:14:17;;;;;;;8.98;1.73;;;;;;;;;;4994702;28;20041;-83
2022/10/25 00:17:02;;;;;;;2.45;1.02;;;;;;;;;;4977199;28;20065;-83
2022/10/25 00:19:47;;;;;;;4.45;1.33;;;;;;;;;;4981554;28;20408;-82
2022/10/25 00:22:33;;;;;;;2.85;1.33;;;;;;;;;;5007489;28;20042;-73
2022/10/25 00:25:18;;;;;;;4.32;1.20;;;;;;;;;;4989564;28;20033;-72
2022/10/25 00:28:03;;;;;;;8.15;1.95;;;;;;;;;;5004496;28;20029;-72
2022/10/25 00:30:57;;;;;;;2.58;1.17;;;;;;;;;;4999769;28;20399;-73
2022/10/25 00:33:43;;;;;;;3.55;1.23;;;;;;;;;;5000149;28;20045;-74
2022/10/25 00:36:28;;;;;;;4.93;1.10;;;;;;;;;;5000937;28;20029;-72
2022/10/25 00:39:13;;;;;;;5.75;1.92;;;;;;;;;;4991121;28;20026;-72
2022/10/25 00:41:58;;;;;;;4.07;1.45;;;;;;;;;;4997426;28;20029;-70
2022/10/25 00:44:44;;;;;;;4.47;1.67;;;;;;;;;;4994848;28;20034;-71
2022/10/25 00:47:41;;;;;;;2.88;1.35;;;;;;;;;;4994744;28;20041;-70
2022/10/25 00:50:31;;;;;;;4.82;1.50;;;;;;;;;;4991245;28;20034;-71
2022/10/25 00:53:26;;;;;;;3.75;1.80;;;;;;;;;;5007276;28;20034;-69
2022/10/25 00:56:13;;;;;;;4.45;1.05;;;;;;;;;;4992716;28;20096;-70
2022/10/25 00:59:00;;;;;;;2.25;1.10;;;;;;;;;;4994476;28;20045;-69
2022/10/25 01:01:46;;;;;;;3.15;1.70;;;;;;;;;;4986795;28;20036;-71
2022/10/25 01:04:32;;;;;;;2.05;1.08;;;;;;;;;;4994872;28;20037;-72
2022/10/25 01:07:17;;;;;;;6.00;1.40;;;;;;;;;;5007341;28;20041;-71
2022/10/25 01:10:02;;;;;;;5.53;1.50;;;;;;;;;;4980996;28;20041;-73
2022/10/25 01:12:47;;;;;;;5.00;1.58;;;;;;;;;;5007719;28;20040;-71
2022/10/25 01:15:53;;;;;;;3.45;1.20;;;;;;;;;;5007612;28;20443;-72
2022/10/25 01:18:42;;;;;;;3.13;1.15;;;;;;;;;;4991086;28;20376;-76
2022/10/25 01:21:37;;;;;;;2.38;1.10;;;;;;;;;;5002218;28;20052;-74
2022/10/25 01:24:41;;;;;;;5.13;1.42;;;;;;;;;;5010017;28;20037;-73
2022/10/25 01:27:42;;;;;;;5.40;1.30;;;;;;;;;;4992067;28;20099;-72
2022/10/25 01:30:45;;;;;;;5.38;1.30;;;;;;;;;;5011222;28;20080;-73
2022/10/25 01:33:35;;;;;;;3.58;1.33;;;;;;;;;;4989647;28;20076;-73
2022/10/25 01:36:39;;;;;;;5.00;1.52;;;;;;;;;;4998137;28;20080;-75
2022/10/25 01:39:37;;;;;;;1.65;1.10;;;;;;;;;;4984308;28;20034;-71
2022/10/25 01:42:26;;;;;;;5.80;1.20;;;;;;;;;;4990942;28;20149;-74
2022/10/25 01:45:20;;;;;;;2.78;1.20;;;;;;;;;;4993083;28;20523;-71
2022/10/25 01:48:08;;;;;;;2.47;1.30;;;;;;;;;;4996606;28;20049;-72
2022/10/25 01:50:53;;;;;;;3.65;1.40;;;;;;;;;;4997131;28;20045;-73
2022/10/25 01:53:48;;;;;;;9.55;1.83;;;;;;;;;;5000557;28;20045;-73
2022/10/25 01:56:44;;;;;;;4.97;1.95;;;;;;;;;;4989014;28;20044;-73
2022/10/25 02:00:02;;;;;;;3.65;1.33;;;;;;;;;;4980563;28;20125;-74
2022/10/25 02:03:06;;;;;;;3.88;1.10;;;;;;;;;;4951924;28;20041;-73
2022/10/25 02:06:10;;;;;;;2.20;1.20;;;;;;;;;;4990890;28;20030;-74
2022/10/25 02:09:00;;;;;;;5.55;1.20;;;;;;;;;;4988891;28;20049;-74
2022/10/25 02:11:46;;;;;;;2.08;1.20;;;;;;;;;;4995108;28;20041;-75
2022/10/25 02:14:33;;;;;;;8.45;1.25;;;;;;;;;;4997601;28;20045;-80
2022/10/25 02:17:21;;;;;;;5.03;1.38;;;;;;;;;;4991569;28;20026;-79
2022/10/25 02:20:07;;;;;;;4.43;1.30;;;;;;;;;;4982322;28;20034;-78
2022/10/25 02:22:53;;;;;;;6.93;1.40;;;;;;;;;;4997671;28;20029;-79
2022/10/25 02:25:39;;;;;;;3.00;1.20;;;;;;;;;;4996684;28;20034;-81
2022/10/25 02:28:25;;;;;;;4.88;1.60;;;;;;;;;;4982081;28;20377;-77
2022/10/25 02:31:13;;;;;;;3.95;1.40;;;;;;;;;;4995191;28;20084;-81
2022/10/25 02:33:58;;;;;;;4.50;1.20;;;;;;;;;;4976557;28;20069;-81
2022/10/25 02:36:50;;;;;;;2.30;1.30;;;;;;;;;;4991918;28;20091;-81
2022/10/25 02:39:35;;;;;;;1.60;1.10;;;;;;;;;;4982997;28;20165;-83
2022/10/25 02:45:43;;;;;;;2.95;1.50;;;;;;;;;;5014324;28;20488;-83
2022/10/25 02:48:28;;;;;;;11.35;1.67;;;;;;;;;;4985847;28;20036;-82
2022/10/25 02:51:14;;;;;;;4.88;1.60;;;;;;;;;;5009454;28;20050;-75
2022/10/25 02:53:59;;;;;;;3.10;1.38;;;;;;;;;;5000184;28;20026;-70
2022/10/25 02:56:44;;;;;;;2.83;1.10;;;;;;;;;;5001629;28;20121;-70
2022/10/25 02:59:29;;;;;;;4.10;1.67;;;;;;;;;;4995215;28;20083;-70
2022/10/25 03:02:15;;;;;;;4.47;1.30;;;;;;;;;;4994095;28;20092;-72
2022/10/25 03:05:00;;;;;;;8.70;1.83;;;;;;;;;;4997035;28;20026;-70
2022/10/25 03:07:45;;;;;;;1.52;1.08;;;;;;;;;;4993822;28;20136;-82
2022/10/25 03:10:30;;;;;;;3.42;1.17;;;;;;;;;;4982903;28;20068;-79
2022/10/25 03:13:15;;;;;;;2.55;1.10;;;;;;;;;;4995810;28;20029;-82
2022/10/25 03:16:01;;;;;;;5.30;1.52;;;;;;;;;;4995725;28;20026;-83
2022/10/25 03:18:46;;;;;;;4.10;1.25;;;;;;;;;;4995195;28;20104;-82
2022/10/25 03:21:31;;;;;;;3.63;1.60;;;;;;;;;;4995651;28;20125;-82
2022/10/25 03:24:17;;;;;;;5.85;2.15;;;;;;;;;;5014392;28;20033;-82
2022/10/25 03:27:02;;;;;;;5.30;1.95;;;;;;;;;;5008151;28;20041;-72
2022/10/25 03:29:47;;;;;;;5.85;1.52;;;;;;;;;;4995558;28;20121;-70
2022/10/25 03:32:32;;;;;;;5.22;1.80;;;;;;;;;;4991380;28;20040;-70
2022/10/25 03:35:18;;;;;;;8.35;1.45;;;;;;;;;;4982360;28;20084;-69
2022/10/25 03:38:03;;;;;;;7.47;1.52;;;;;;;;;;4988216;28;20037;-71
2022/10/25 03:40:48;;;;;;;3.67;1.73;;;;;;;;;;4996875;28;20030;-70
2022/10/25 03:43:34;;;;;;;2.55;1.20;;;;;;;;;;4994622;28;20459;-70
2022/10/25 03:46:19;;;;;;;3.80;1.63;;;;;;;;;;4994701;28;20045;-84
2022/10/25 03:49:04;;;;;;;4.03;1.33;;;;;;;;;;4994325;28;20116;-69
2022/10/25 03:51:49;;;;;;;5.03;1.52;;;;;;;;;;5009346;28;20144;-71
2022/10/25 03:54:34;;;;;;;4.97;1.88;;;;;;;;;;5009579;28;20638;-70
2022/10/25 03:57:20;;;;;;;9.63;1.90;;;;;;;;;;5008654;28;20029;-71
2022/10/25 04:00:05;;;;;;;3.28;1.38;;;;;;;;;;4989653;28;20044;-70
2022/10/25 04:02:54;;;;;;;4.22;1.40;;;;;;;;;;4991025;28;20085;-71
2022/10/25 04:05:39;;;;;;;5.07;1.70;;;;;;;;;;4995325;28;20400;-73
2022/10/25 04:08:25;;;;;;;6.70;1.83;;;;;;;;;;4981235;28;20088;-75
2022/10/25 04:11:10;;;;;;;17.33;2.80;;;;;;;;;;4994504;28;20454;-75
2022/10/25 04:13:55;;;;;;;5.88;1.80;;;;;;;;;;4985309;28;20113;-74
2022/10/25 04:16:41;;;;;;;9.30;2.63;;;;;;;;;;5007917;28;20056;-75
2022/10/25 04:19:26;;;;;;;8.70;1.95;;;;;;;;;;4993042;28;20032;-76
2022/10/25 04:22:12;;;;;;;3.40;1.70;;;;;;;;;;4997422;28;20034;-83
2022/10/25 04:24:57;;;;;;;4.30;1.90;;;;;;;;;;4993463;28;20029;-78
2022/10/25 04:27:42;;;;;;;5.28;1.65;;;;;;;;;;5003383;28;20034;-78
2022/10/25 04:30:27;;;;;;;6.85;1.80;;;;;;;;;;4993671;28;20032;-79
2022/10/25 04:33:13;;;;;;;6.05;2.13;;;;;;;;;;4980762;28;20041;-78
2022/10/25 04:35:58;;;;;;;7.18;1.70;;;;;;;;;;4994784;28;20487;-79
2022/10/25 04:38:46;;;;;;;5.13;1.90;;;;;;;;;;4994427;28;20400;-78
2022/10/25 04:41:31;;;;;;;6.80;2.40;;;;;;;;;;4979746;28;20044;-74
2022/10/25 04:44:16;;;;;;;4.13;1.67;;;;;;;;;;4995600;28;20076;-83
2022/10/25 04:47:02;;;;;;;3.70;1.60;;;;;;;;;;5001902;28;20038;-83
2022/10/25 04:49:47;;;;;;;6.15;1.95;;;;;;;;;;4994832;28;20034;-82
2022/10/25 04:52:32;;;;;;;6.00;1.45;;;;;;;;;;4991183;28;20042;-82
2022/10/25 04:55:17;;;;;;;7.07;1.73;;;;;;;;;;4991035;28;20029;-84
2022/10/25 04:58:03;;;;;;;7.97;2.20;;;;;;;;;;4990801;28;20029;-73
2022/10/25 05:00:48;;;;;;;9.00;2.25;;;;;;;;;;4984458;28;20192;-75
2022/10/25 05:03:34;;;;;;;3.63;1.92;;;;;;;;;;5005446;28;21009;-71
2022/10/25 05:06:21;;;;;;;5.38;1.90;;;;;;;;;;4991631;28;20026;-71
2022/10/25 05:09:06;;;;;;;4.97;2.17;;;;;;;;;;4992273;28;20029;-71
2022/10/25 05:11:51;;;;;;;5.38;1.95;;;;;;;;;;4993736;28;20034;-71
2022/10/25 05:14:36;;;;;;;6.65;2.45;;;;;;;;;;4991182;28;20044;-71
2022/10/25 05:17:22;;;;;;;9.27;2.90;;;;;;;;;;5002987;28;20416;-83
2022/10/25 05:20:07;;;;;;;5.90;2.13;;;;;;;;;;5003607;28;20030;-75
2022/10/25 05:22:52;;;;;;;2.80;1.70;;;;;;;;;;5002737;28;20041;-74
2022/10/25 05:25:38;;;;;;;6.93;1.70;;;;;;;;;;4985286;28;20589;-73
2022/10/25 05:28:23;;;;;;;10.00;1.98;;;;;;;;;;5002718;28;20037;-73
2022/10/25 05:31:10;;;;;;;4.90;1.60;;;;;;;;;;5005693;28;20041;-73
2022/10/25 05:33:57;;;;;;;2.83;1.80;;;;;;;;;;4989487;28;20022;-76
2022/10/25 05:36:42;;;;;;;5.30;1.95;;;;;;;;;;5003143;28;20249;-71
2022/10/25 05:39:27;;;;;;;5.75;2.03;;;;;;;;;;5002795;28;20244;-75
2022/10/25 05:42:12;;;;;;;10.05;3.50;;;;;;;;;;4992709;28;20041;-73
2022/10/25 05:44:58;;;;;;;5.15;2.10;;;;;;;;;;4992538;28;20040;-73
2022/10/25 05:47:43;;;;;;;6.55;1.90;;;;;;;;;;4994003;28;20346;-74
2022/10/25 05:50:28;;;;;;;2.40;1.63;;;;;;;;;;4993571;28;20037;-75
2022/10/25 05:53:13;;;;;;;4.22;2.00;;;;;;;;;;4979957;28;20033;-71
2022/10/25 05:55:59;;;;;;;8.70;2.58;;;;;;;;;;4995146;28;20029;-75
2022/10/25 05:58:44;;;;;;;8.43;2.25;;;;;;;;;;4993698;28;20366;-74
2022/10/25 06:01:30;;;;;;;8.25;3.53;;;;;;;;;;4994171;28;20100;-74
2022/10/25 06:04:15;;;;;;;3.90;1.83;;;;;;;;;;4980140;28;20042;-74
2022/10/25 06:07:00;;;;;;;6.40;2.55;;;;;;;;;;4994593;28;20123;-76
2022/10/25 06:09:46;;;;;;;9.43;2.30;;;;;;;;;;4992527;28;20032;-72
2022/10/25 06:12:31;;;;;;;9.07;2.40;;;;;;;;;;4984357;28;20034;-74
2022/10/25 06:15:16;;;;;;;4.05;2.30;;;;;;;;;;5008577;28;20042;-80
2022/10/25 06:18:01;;;;;;;4.03;2.17;;;;;;;;;;4988966;28;20130;-81
2022/10/25 06:20:47;;;;;;;6.13;2.08;;;;;;;;;;4980482;28;20042;-84
2022/10/25 06:23:33;;;;;;;8.40;2.38;;;;;;;;;;4996872;28;20029;-85
2022/10/25 06:26:19;;;;;;;4.97;1.80;;;;;;;;;;5008070;28;20018;-84
2022/10/25 06:29:05;;;;;;;6.68;2.47;;;;;;;;;;4994973;28;20120;-85
2022/10/25 06:31:53;;;;;;;6.13;2.22;;;;;;;;;;4979483;28;20394;-74
2022/10/25 06:34:38;;;;;;;5.90;2.10;;;;;;;;;;4988836;28;20036;-76
2022/10/25 06:37:23;;;;;;;7.55;2.55;;;;;;;;;;4980387;28;20026;-81
2022/10/25 06:40:11;;;;;;;5.45;2.10;;;;;;;;;;4993889;28;20330;-84
2022/10/25 06:42:56;;;;;;;6.82;1.92;;;;;;;;;;4990944;28;20037;-78
2022/10/25 06:45:42;;;;;;;6.65;1.92;;;;;;;;;;4995145;28;20477;-76
2022/10/25 06:48:27;;;;;;;8.45;2.97;;;;;;;;;;5007888;28;20037;-82
2022/10/25 06:51:12;;;;;;;4.72;2.05;;;;;;;;;;4979291;28;20121;-79
2022/10/25 06:53:58;;;;;;;4.75;2.15;;;;;;;;;;4991005;28;20041;-84
2022/10/25 06:56:43;;;;;;;4.55;2.30;;;;;;;;;;4993881;28;20224;-74
2022/10/25 06:59:29;;;;;;;8.77;2.70;;;;;;;;;;4981926;28;20026;-76
2022/10/25 07:02:14;;;;;;;4.55;2.05;;;;;;;;;;4980319;28;20030;-74
2022/10/25 07:04:59;;;;;;;4.43;2.20;;;;;;;;;;4993703;28;20030;-78
2022/10/25 07:07:44;;;;;;;9.48;2.28;;;;;;;;;;4979148;28;20495;-84
2022/10/25 07:10:30;;;;;;;7.10;2.28;;;;;;;;;;4982715;28;20025;-79
2022/10/25 07:13:15;;;;;;;3.92;2.20;;;;;;;;;;4992565;28;20636;-83
2022/10/25 07:16:01;;;;;;;8.57;2.63;;;;;;;;;;4993276;28;20038;-78
2022/10/25 07:18:47;;;;;;;7.53;3.03;;;;;;;;;;4991410;28;20358;-81
2022/10/25 07:21:33;;;;;;;6.78;2.10;;;;;;;;;;5003302;28;20037;-82
2022/10/25 07:24:18;;;;;;;3.63;2.10;;;;;;;;;;4981201;28;20807;-81
2022/10/25 07:27:03;;;;;;;5.95;1.98;;;;;;;;;;5005075;28;20029;-73
2022/10/25 07:29:49;;;;;;;5.57;2.00;;;;;;;;;;4978473;28;20038;-73
2022/10/25 07:32:34;;;;;;;4.78;2.45;;;;;;;;;;4992220;28;20030;-78
2022/10/25 07:35:19;;;;;;;6.03;2.70;;;;;;;;;;4979580;28;20547;-75
2022/10/25 07:38:04;;;;;;;6.15;2.45;;;;;;;;;;4992507;28;20029;-80
2022/10/25 07:40:56;;;;;;;5.38;2.08;;;;;;;;;;4994246;28;20384;-81
2022/10/25 07:43:42;;;;;;;7.25;2.45;;;;;;;;;;5006474;28;20465;-80
2022/10/25 07:46:27;;;;;;;5.22;2.05;;;;;;;;;;4979461;28;20033;-79
2022/10/25 07:49:12;;;;;;;5.25;1.50;;;;;;;;;;4991206;28;20370;-78
2022/10/25 07:51:58;;;;;;;7.88;1.90;;;;;;;;;;4991972;28;20038;-72
2022/10/25 07:54:43;;;;;;;5.38;2.35;;;;;;;;;;4994609;28;20030;-73
2022/10/25 07:57:28;;;;;;;7.28;3.28;;;;;;;;;;5005313;28;20034;-79
2022/10/25 08:00:13;;;;;;;7.32;2.20;;;;;;;;;;5006194;28;20034;-76
2022/10/25 08:02:59;;;;;;;4.68;1.95;;;;;;;;;;4991330;28;20038;-75
2022/10/25 08:05:45;;;;;;;5.97;1.67;;;;;;;;;;4977592;28;20074;-76
2022/10/25 08:08:31;;;;;;;3.20;1.73;;;;;;;;;;4986710;28;20058;-76
2022/10/25 08:11:16;;;;;;;4.18;1.95;;;;;;;;;;4976451;28;20109;-74
2022/10/25 08:14:01;;;;;;;7.88;1.90;;;;;;;;;;5000991;28;20069;-77
2022/10/25 08:16:46;;;;;;;4.95;1.95;;;;;;;;;;4990566;28;20164;-77
2022/10/25 08:19:32;;;;;;;3.92;1.70;;;;;;;;;;4990253;28;21376;-77
2022/10/25 08:22:17;;;;;;;6.20;2.25;;;;;;;;;;4979959;28;20463;-81
2022/10/25 08:25:04;;;;;;;4.28;1.65;;;;;;;;;;4989865;28;20029;-74
2022/10/25 08:27:49;;;;;;;6.63;2.00;;;;;;;;;;4991667;28;20038;-74
2022/10/25 08:30:34;;;;;;;5.20;2.08;;;;;;;;;;4989640;28;20038;-75
2022/10/25 08:33:19;;;;;;;7.30;2.15;;;;;;;;;;4976677;28;20046;-73
2022/10/25 08:36:05;;;;;;;3.38;1.30;;;;;;;;;;4987802;28;20549;-73
2022/10/25 08:38:50;;;;;;;6.78;2.13;;;;;;;;;;4986531;28;20030;-78
2022/10/25 08:41:44;;;;;;;6.57;2.35;;;;;;;;;;4991053;28;20075;-77
2022/10/25 08:44:30;;;;;;;8.05;1.90;;;;;;;;;;4995160;28;20021;-81
2022/10/25 08:47:15;;;;;;;5.63;1.95;;;;;;;;;;4979886;28;20069;-80
2022/10/25 08:50:12;;;;;;;10.95;1.67;;;;;;;;;;4979719;28;20029;-78
2022/10/25 08:53:00;;;;;;;5.25;2.08;;;;;;;;;;4993496;28;20030;-76
2022/10/25 08:55:46;;;;;;;6.55;1.90;;;;;;;;;;4987805;28;20066;-79
2022/10/25 08:58:38;;;;;;;4.35;1.70;;;;;;;;;;4989980;28;20465;-77
2022/10/25 09:01:27;;;;;;;4.07;1.58;;;;;;;;;;4989589;28;20064;-65
2022/10/25 09:04:14;;;;;;;6.55;1.75;;;;;;;;;;5004660;28;20034;-68
2022/10/25 09:07:02;;;;;;;5.97;2.00;;;;;;;;;;5004680;28;20026;-71
2022/10/25 09:10:14;;;;;;;6.60;1.85;;;;;;;;;;5004492;28;20102;-69
2022/10/25 09:13:05;;;;;;;9.13;2.40;;;;;;;;;;4969731;28;20128;-70
2022/10/25 09:16:08;;;;;;;11.02;2.83;;;;;;;;;;4989323;28;20083;-78
2022/10/25 09:18:55;;;;;;;2.83;1.67;;;;;;;;;;5006958;28;20096;-69
2022/10/25 09:21:41;;;;;;;3.22;1.42;;;;;;;;;;4977287;28;20554;-69
2022/10/25 09:24:26;;;;;;;4.00;1.75;;;;;;;;;;4986954;28;20515;-68
2022/10/25 09:27:14;;;;;;;5.15;1.70;;;;;;;;;;4991424;28;20089;-70
2022/10/25 09:30:07;;;;;;;5.65;2.30;;;;;;;;;;4987766;28;20030;-71
2022/10/25 09:33:04;;;;;;;3.25;2.25;;;;;;;;;;4989773;28;20145;-70
2022/10/25 09:35:54;;;;;;;3.67;1.52;;;;;;;;;;5003910;28;22316;-75
2022/10/25 09:38:42;;;;;;;3.47;1.60;;;;;;;;;;5004485;28;20477;-73
2022/10/25 09:41:31;;;;;;;7.87;1.57;;;;;;;;;;5002212;28;20409;-73
2022/10/25 09:44:22;;;;;;;6.93;1.42;;;;;;;;;;4991276;28;20393;-74
2022/10/25 09:47:13;;;;;;;6.47;1.92;;;;;;;;;;4996195;28;20069;-75
2022/10/25 09:50:03;;;;;;;3.33;1.15;;;;;;;;;;4994462;28;20026;-75
2022/10/25 09:52:52;;;;;;;4.50;1.85;;;;;;;;;;4994051;28;20095;-77
2022/10/25 09:55:43;;;;;;;4.35;1.60;;;;;;;;;;5008480;28;20266;-71
2022/10/25 09:58:29;;;;;;;7.55;1.98;;;;;;;;;;5007963;28;20061;-71
2022/10/25 10:01:16;;;;;;;8.13;2.28;;;;;;;;;;4992674;28;20092;-71
2022/10/25 10:04:30;;;;;;;7.45;1.92;;;;;;;;;;5003783;28;20033;-71
2022/10/25 10:07:19;;;;;;;2.75;1.20;;;;;;;;;;4992145;28;20076;-71
2022/10/25 10:10:04;;;;;;;;;;;;;;;;;;4981980;28;20038;-70
2022/10/25 10:13:11;;;;;;;4.47;1.60;;;;;;;;;;4993236;28;19913;-73
2022/10/25 10:16:04;;;;;;;11.75;2.40;;;;;;;;;;4992499;28;20041;-66
2022/10/25 10:18:49;;;;;;;8.38;2.40;;;;;;;;;;5007437;28;20505;-66
2022/10/25 10:21:35;;;;;;;9.60;2.88;;;;;;;;;;5008536;28;20041;-67
2022/10/25 10:24:20;;;;;;;6.05;2.30;;;;;;;;;;4986085;28;20080;-67
2022/10/25 10:27:07;;;;;;;5.78;1.45;;;;;;;;;;4996803;28;20381;-69
2022/10/25 10:29:52;;;;;;;9.25;1.90;;;;;;;;;;4994207;28;20364;-69
2022/10/25 10:32:39;;;;;;;6.75;2.45;;;;;;;;;;4979494;28;20468;-65
2022/10/25 10:35:29;;;;;;;4.25;1.67;;;;;;;;;;4992776;28;20519;-69
2022/10/25 10:38:14;;;;;;;7.50;2.22;;;;;;;;;;4994539;28;20096;-66
2022/10/25 10:41:18;;;;;;;7.32;1.60;;;;;;;;;;4994058;28;20544;-66
2022/10/25 10:44:06;;;;;;;4.20;1.55;;;;;;;;;;5005648;28;20032;-66
2022/10/25 10:46:53;;;;;;;4.50;1.33;;;;;;;;;;4995408;28;20046;-62
2022/10/25 10:49:40;;;;;;;9.20;1.90;;;;;;;;;;5009887;28;20037;-62
2022/10/25 10:52:25;;;;;;;8.80;2.15;;;;;;;;;;4996742;28;20037;-69
2022/10/25 10:55:34;;;;;;;7.32;1.77;;;;;;;;;;5008332;28;20029;-68
2022/10/25 10:58:25;;;;;;;5.13;1.33;;;;;;;;;;4995197;28;20037;-68
2022/10/25 11:01:12;;;;;;;3.05;1.40;;;;;;;;;;4993076;28;20041;-68
2022/10/25 11:03:58;;;;;;;7.50;2.03;;;;;;;;;;4981561;28;20034;-69
2022/10/25 11:06:43;;;;;;;6.15;1.48;;;;;;;;;;5007383;28;21399;-72
2022/10/25 11:09:28;;;;;;;7.68;1.85;;;;;;;;;;5008570;28;20026;-70
2022/10/25 11:12:13;;;;;;;8.82;1.77;;;;;;;;;;4993533;28;20038;-68
2022/10/25 11:14:59;;;;;;;4.68;1.65;;;;;;;;;;4992977;28;20037;-65
2022/10/25 11:17:47;;;;;;;5.47;1.55;;;;;;;;;;4980511;28;20129;-65
2022/10/25 11:20:48;;;;;;;4.60;1.27;;;;;;;;;;4995890;28;20160;-67
2022/10/25 11:23:48;;;;;;;4.13;1.33;;;;;;;;;;5007982;28;20084;-67
2022/10/25 11:26:53;;;;;;;4.25;1.50;;;;;;;;;;5002973;28;20829;-69
2022/10/25 11:29:44;;;;;;;5.90;1.33;;;;;;;;;;4981613;28;20052;-69
2022/10/25 11:32:48;;;;;;;7.68;1.70;;;;;;;;;;5006350;28;20037;-67
2022/10/25 11:35:42;;;;;;;3.38;1.40;;;;;;;;;;5007080;28;20034;-69
2022/10/25 11:39:03;;;;;;;2.78;1.35;;;;;;;;;;5002455;28;20028;-69
2022/10/25 11:42:12;;;;;;;5.53;1.73;;;;;;;;;;4910540;29;20135;-70
2022/10/25 11:45:23;;;;;;;2.70;1.43;;;;;;;;;;4999343;28;20050;-68
2022/10/25 11:48:15;;;;;;;8.65;1.75;;;;;;;;;;4990553;28;20276;-68
2022/10/25 11:51:14;;;;;;;5.43;1.42;;;;;;;;;;4991382;28;20034;-70
2022/10/25 11:54:12;;;;;;;7.00;1.63;;;;;;;;;;4991451;28;20026;-69
2022/10/25 11:56:58;;;;;;;3.78;1.00;;;;;;;;;;5004453;28;20163;-69
2022/10/25 12:00:05;;;;;;;3.30;1.35;;;;;;;;;;5004353;28;20504;-69
2022/10/25 12:03:09;;;;;;;7.70;1.20;;;;;;;;;;4989540;28;20111;-74
2022/10/25 12:06:11;;;;;;;3.63;1.20;;;;;;;;;;5007186;28;20040;-65
2022/10/25 12:09:15;;;;;;;7.85;1.65;;;;;;;;;;4991291;28;20104;-61
2022/10/25 12:12:02;;;;;;;4.47;1.92;;;;;;;;;;5005324;28;20034;-62
2022/10/25 12:14:49;;;;;;;4.30;1.35;;;;;;;;;;4976587;28;20542;-62
2022/10/25 12:17:35;;;;;;;3.50;1.02;;;;;;;;;;4991660;28;20148;-62
2022/10/25 12:20:40;;;;;;;4.65;1.50;;;;;;;;;;4989412;28;20573;-69
2022/10/25 12:23:27;;;;;;;2.60;0.95;;;;;;;;;;4989171;28;20041;-69
2022/10/25 12:26:16;;;;;;;3.65;1.10;;;;;;;;;;4978698;28;20484;-69
2022/10/25 12:29:02;;;;;;;2.83;1.13;;;;;;;;;;4989391;28;20084;-70
2022/10/25 12:31:53;;;;;;;2.67;1.33;;;;;;;;;;5005854;28;20034;-69
2022/10/25 12:34:55;;;;;;;3.08;1.38;;;;;;;;;;4978333;28;20109;-69
2022/10/25 12:37:44;;;;;;;3.88;1.00;;;;;;;;;;5003526;28;20030;-70
2022/10/25 12:40:41;;;;;;;4.50;1.13;;;;;;;;;;4975832;28;20037;-62
2022/10/25 12:43:36;;;;;;;4.95;1.50;;;;;;;;;;4992529;28;20026;-68
2022/10/25 12:46:31;;;;;;;2.60;1.02;;;;;;;;;;4994259;28;20030;-68
2022/10/25 12:49:36;;;;;;;4.85;1.83;;;;;;;;;;4989340;28;20038;-69
2022/10/25 12:52:30;;;;;;;6.15;1.40;;;;;;;;;;4974622;28;20046;-69
2022/10/25 12:55:15;;;;;;;3.67;1.08;;;;;;;;;;4990905;28;20109;-68
2022/10/25 12:58:01;;;;;;;4.03;1.20;;;;;;;;;;4990987;28;20036;-70
2022/10/25 13:00:55;;;;;;;5.10;1.30;;;;;;;;;;4992077;28;20030;-62
2022/10/25 13:03:49;;;;;;;5.70;1.50;;;;;;;;;;5004219;28;20404;-62
2022/10/25 13:06:35;;;;;;;4.43;1.15;;;;;;;;;;5004417;28;20056;-63
2022/10/25 13:09:21;;;;;;;3.22;1.10;;;;;;;;;;4993771;28;20042;-62
2022/10/25 13:12:17;;;;;;;1.70;0.93;;;;;;;;;;4993003;28;20037;-62
2022/10/25 13:15:02;;;;;;;4.13;1.33;;;;;;;;;;4990353;28;20033;-70
2022/10/25 13:18:01;;;;;;;2.42;1.00;;;;;;;;;;4994087;28;20099;-75
2022/10/25 13:20:46;;;;;;;2.47;1.25;;;;;;;;;;5009915;28;20065;-73
2022/10/25 13:23:41;;;;;;;7.25;1.48;;;;;;;;;;5013345;28;20428;-74
2022/10/25 13:26:29;;;;;;;5.25;1.55;;;;;;;;;;4992767;28;20481;-69
2022/10/25 13:29:33;;;;;;;4.13;1.58;;;;;;;;;;5004453;28;20022;-69
2022/10/25 13:32:19;;;;;;;5.28;1.48;;;;;;;;;;4994363;28;20092;-69
2022/10/25 13:35:16;;;;;;;7.13;1.63;;;;;;;;;;4993510;28;20034;-78
2022/10/25 13:38:05;;;;;;;5.35;1.27;;;;;;;;;;4995456;28;20037;-63
2022/10/25 13:41:17;;;;;;;7.10;1.40;;;;;;;;;;4997420;28;20116;-62
2022/10/25 13:44:03;;;;;;;5.28;1.98;;;;;;;;;;5009027;28;20500;-63
2022/10/25 13:46:49;;;;;;;5.30;1.73;;;;;;;;;;4997578;28;20111;-61
2022/10/25 13:49:41;;;;;;;4.20;1.20;;;;;;;;;;4996171;28;20030;-63
2022/10/25 13:52:30;;;;;;;5.20;1.60;;;;;;;;;;4997720;28;20036;-66
2022/10/25 13:55:19;;;;;;;10.32;1.90;;;;;;;;;;4989806;28;20030;-63
2022/10/25 13:58:23;;;;;;;4.70;1.33;;;;;;;;;;5011156;28;20041;-62
2022/10/25 14:01:14;;;;;;;3.65;1.45;;;;;;;;;;4995870;28;20069;-62
2022/10/25 14:04:04;;;;;;;5.50;1.35;;;;;;;;;;4996533;28;20033;-61
2022/10/25 14:06:50;;;;;;;5.15;1.50;;;;;;;;;;4994474;28;20030;-62
2022/10/25 14:09:35;;;;;;;6.03;1.83;;;;;;;;;;4996834;28;20034;-78
2022/10/25 14:12:21;;;;;;;7.63;1.63;;;;;;;;;;4997037;28;20658;-67
2022/10/25 14:15:12;;;;;;;5.88;1.70;;;;;;;;;;5011718;28;20545;-67
2022/10/25 14:17:57;;;;;;;6.15;1.88;;;;;;;;;;4996638;28;20045;-71
2022/10/25 14:20:47;;;;;;;2.80;1.40;;;;;;;;;;4996985;28;20038;-68
2022/10/25 14:23:33;;;;;;;4.18;1.40;;;;;;;;;;5007620;28;20469;-66
2022/10/25 14:26:20;;;;;;;5.85;1.98;;;;;;;;;;4996978;28;20041;-67
2022/10/25 14:29:13;;;;;;;8.88;1.50;;;;;;;;;;5006630;28;20033;-68
2022/10/25 14:31:58;;;;;;;5.82;1.38;;;;;;;;;;4993927;28;20507;-65
2022/10/25 14:34:47;;;;;;;7.72;1.73;;;;;;;;;;5009576;28;20026;-63
2022/10/25 14:37:32;;;;;;;;;;;;;;;;;;5002042;28;20384;-62
2022/10/25 14:40:19;;;;;;;7.72;1.45;;;;;;;;;;4992820;28;19913;-62
2022/10/25 14:43:19;;;;;;;11.25;1.50;;;;;;;;;;4997186;28;20034;-62
2022/10/25 14:46:04;;;;;;;6.13;2.17;;;;;;;;;;5000916;28;20069;-63
2022/10/25 14:48:53;;;;;;;8.38;3.55;;;;;;;;;;5005652;28;20041;-79
2022/10/25 14:51:39;;;;;;;6.50;2.50;;;;;;;;;;4990201;28;20037;-66
2022/10/25 14:54:24;;;;;;;10.48;2.40;;;;;;;;;;5010710;28;20335;-67
2022/10/25 14:57:10;;;;;;;5.57;2.00;;;;;;;;;;4988189;28;20100;-68
2022/10/25 14:59:57;;;;;;;7.05;2.22;;;;;;;;;;4994685;28;20546;-67
2022/10/25 15:02:43;;;;;;;5.65;2.20;;;;;;;;;;4995911;28;20507;-67
2022/10/25 15:05:28;;;;;;;7.65;1.95;;;;;;;;;;4993820;28;20033;-71
2022/10/25 15:08:18;;;;;;;8.15;2.28;;;;;;;;;;4995395;28;20113;-63
2022/10/25 15:11:05;;;;;;;5.68;1.70;;;;;;;;;;4980698;28;20038;-61
2022/10/25 15:13:52;;;;;;;9.55;2.30;;;;;;;;;;4994472;28;20553;-62
2022/10/25 15:16:39;;;;;;;11.60;2.67;;;;;;;;;;5005643;28;20508;-63
2022/10/25 15:19:24;;;;;;;7.43;2.53;;;;;;;;;;4996114;28;20034;-62
2022/10/25 15:22:14;;;;;;;10.60;2.38;;;;;;;;;;5007876;28;20030;-62
2022/10/25 15:24:59;;;;;;;5.75;1.50;;;;;;;;;;4993918;28;20534;-66
2022/10/25 15:27:44;;;;;;;8.25;1.73;;;;;;;;;;5005236;28;20037;-67
2022/10/25 15:30:43;;;;;;;5.45;1.58;;;;;;;;;;5001582;28;20121;-65
2022/10/25 15:33:30;;;;;;;7.82;2.33;;;;;;;;;;4981805;28;20083;-66
2022/10/25 15:36:19;;;;;;;6.63;1.90;;;;;;;;;;4992588;28;20092;-65
2022/10/25 15:39:16;;;;;;;8.20;2.17;;;;;;;;;;5004849;28;20044;-66
2022/10/25 15:42:02;;;;;;;11.65;2.28;;;;;;;;;;5002589;28;20034;-69
2022/10/25 15:44:47;;;;;;;9.75;3.13;;;;;;;;;;4995216;28;20030;-65
2022/10/25 15:47:33;;;;;;;16.40;3.33;;;;;;;;;;4994989;28;20042;-65
2022/10/25 15:50:18;;;;;;;7.75;2.80;;;;;;;;;;4990700;28;20353;-65
2022/10/25 15:53:03;;;;;;;10.25;2.10;;;;;;;;;;5009716;28;20044;-63
2022/10/25 15:55:49;;;;;;;4.00;1.80;;;;;;;;;;4994270;28;20353;-66
2022/10/25 15:58:34;;;;;;;13.55;2.35;;;;;;;;;;4990994;28;20120;-67
2022/10/25 16:01:20;;;;;;;5.63;2.00;;;;;;;;;;4993893;28;20029;-62
2022/10/25 16:04:05;;;;;;;10.23;2.83;;;;;;;;;;4994367;28;20071;-69
2022/10/25 16:06:50;;;;;;;6.97;2.15;;;;;;;;;;4977260;28;20042;-68
2022/10/25 16:09:35;;;;;;;9.55;3.30;;;;;;;;;;4991013;28;20097;-67
2022/10/25 16:12:25;;;;;;;11.48;3.33;;;;;;;;;;5005833;28;20050;-68
2022/10/25 16:15:13;;;;;;;12.55;4.18;;;;;;;;;;5007963;28;20087;-68
2022/10/25 16:17:58;;;;;;;9.48;2.28;;;;;;;;;;5002755;28;20116;-66
2022/10/25 16:20:43;;;;;;;6.50;2.28;;;;;;;;;;4991215;28;20114;-66
2022/10/25 16:23:30;;;;;;;9.82;2.72;;;;;;;;;;5006946;28;20029;-62
2022/10/25 16:26:21;;;;;;;7.00;1.88;;;;;;;;;;4994076;28;20029;-62
2022/10/25 16:29:08;;;;;;;9.52;2.38;;;;;;;;;;4992593;28;20038;-63
2022/10/25 16:31:54;;;;;;;7.55;2.58;;;;;;;;;;5008099;28;20034;-60
2022/10/25 16:34:41;;;;;;;6.93;2.70;;;;;;;;;;4994367;28;20433;-61
2022/10/25 16:37:26;;;;;;;5.22;2.08;;;;;;;;;;4994282;28;20128;-67
2022/10/25 16:40:15;;;;;;;10.80;1.98;;;;;;;;;;4992804;28;20045;-66
2022/10/25 16:43:01;;;;;;;10.88;1.98;;;;;;;;;;5001826;28;20037;-67
2022/10/25 16:45:46;;;;;;;7.07;1.95;;;;;;;;;;4994364;28;20041;-70
2022/10/25 16:48:31;;;;;;;5.30;1.98;;;;;;;;;;5007882;28;20354;-69
2022/10/25 16:51:17;;;;;;;10.20;2.45;;;;;;;;;;4987436;28;20048;-67
2022/10/25 16:54:03;;;;;;;8.38;2.75;;;;;;;;;;5008442;28;20037;-68